sensor_id;sensor_type;location;lat;lon;timestamp;pressure;altitude;pressure_sealevel;temperature;humidity
78206;BME280;67480;48.920;12.880;2024-03-02T00:02:07;96027.31;;;6.05;80.22
78206;BME280;67480;48.920;12.880;2024-03-02T00:04:33;96027.53;;;6.03;80.21
78206;BME280;67480;48.920;12.880;2024-03-02T00:06:58;96028.13;;;6.05;79.95
78206;BME280;67480;48.920;12.880;2024-03-02T00:09:24;96028.69;;;6.07;80.10
78206;BME280;67480;48.920;12.880;2024-03-02T00:11:50;96028.13;;;6.05;80.05
78206;BME280;67480;48.920;12.880;2024-03-02T00:14:16;96025.09;;;6.08;80.42
78206;BME280;67480;48.920;12.880;2024-03-02T00:16:42;96028.69;;;6.07;80.05
78206;BME280;67480;48.920;12.880;2024-03-02T00:19:08;96029.28;;;6.09;79.88
78206;BME280;67480;48.920;12.880;2024-03-02T00:21:34;96026.91;;;6.08;80.04
78206;BME280;67480;48.920;12.880;2024-03-02T00:24:01;96022.47;;;6.08;79.84
78206;BME280;67480;48.920;12.880;2024-03-02T00:26:32;96025.88;;;6.09;80.62
78206;BME280;67480;48.920;12.880;2024-03-02T00:28:58;96030.28;;;6.08;79.96
78206;BME280;67480;48.920;12.880;2024-03-02T00:31:25;96027.69;;;6.08;80.16
78206;BME280;67480;48.920;12.880;2024-03-02T00:33:51;96026.06;;;6.07;80.08
78206;BME280;67480;48.920;12.880;2024-03-02T00:36:22;96030.88;;;6.10;80.07
78206;BME280;67480;48.920;12.880;2024-03-02T00:38:51;96035.50;;;6.08;80.03
78206;BME280;67480;48.920;12.880;2024-03-02T00:41:23;96031.88;;;6.09;79.83
78206;BME280;67480;48.920;12.880;2024-03-02T00:44:03;96030.88;;;6.10;80.01
78206;BME280;67480;48.920;12.880;2024-03-02T00:46:33;96031.88;;;6.09;80.10
78206;BME280;67480;48.920;12.880;2024-03-02T00:49:00;96028.28;;;6.10;80.23
78206;BME280;67480;48.920;12.880;2024-03-02T00:51:31;96034.84;;;6.13;80.51
78206;BME280;67480;48.920;12.880;2024-03-02T00:54:02;96030.88;;;6.10;80.69
78206;BME280;67480;48.920;12.880;2024-03-02T00:56:29;96030.06;;;6.10;80.69
78206;BME280;67480;48.920;12.880;2024-03-02T00:58:55;96027.25;;;6.11;80.69
78206;BME280;67480;48.920;12.880;2024-03-02T01:01:21;96028.84;;;6.12;80.91
78206;BME280;67480;48.920;12.880;2024-03-02T01:03:47;96030.66;;;6.12;81.01
78206;BME280;67480;48.920;12.880;2024-03-02T01:06:14;96028.06;;;6.12;80.90
78206;BME280;67480;48.920;12.880;2024-03-02T01:08:40;96021.47;;;6.09;80.67
78206;BME280;67480;48.920;12.880;2024-03-02T01:11:05;96025.69;;;6.10;80.81
78206;BME280;67480;48.920;12.880;2024-03-02T01:13:31;96027.25;;;6.11;80.86
78206;BME280;67480;48.920;12.880;2024-03-02T01:15:57;96024.66;;;6.11;81.09
78206;BME280;67480;48.920;12.880;2024-03-02T01:18:23;96019.22;;;6.13;80.80
78206;BME280;67480;48.920;12.880;2024-03-02T01:20:49;96021.81;;;6.13;80.98
78206;BME280;67480;48.920;12.880;2024-03-02T01:23:17;96012.44;;;6.12;80.81
78206;BME280;67480;48.920;12.880;2024-03-02T01:25:43;96018.44;;;6.12;80.83
78206;BME280;67480;48.920;12.880;2024-03-02T01:28:08;96022.06;;;6.11;80.27
78206;BME280;67480;48.920;12.880;2024-03-02T01:30:33;96029.06;;;6.11;81.23
78206;BME280;67480;48.920;12.880;2024-03-02T01:33:00;96021.25;;;6.11;81.11
78206;BME280;67480;48.920;12.880;2024-03-02T01:35:25;96012.66;;;6.10;80.95
78206;BME280;67480;48.920;12.880;2024-03-02T01:37:51;96017.66;;;6.12;81.11
78206;BME280;67480;48.920;12.880;2024-03-02T01:40:17;96018.44;;;6.12;81.22
78206;BME280;67480;48.920;12.880;2024-03-02T01:42:43;96011.66;;;6.11;81.54
78206;BME280;67480;48.920;12.880;2024-03-02T01:45:08;96013.66;;;6.09;81.19
78206;BME280;67480;48.920;12.880;2024-03-02T01:47:34;96008.03;;;6.12;81.47
78206;BME280;67480;48.920;12.880;2024-03-02T01:50:00;96015.41;;;6.16;81.12
78206;BME280;67480;48.920;12.880;2024-03-02T01:52:26;96006.44;;;6.11;81.60
78206;BME280;67480;48.920;12.880;2024-03-02T01:54:52;96003.06;;;6.11;80.87
78206;BME280;67480;48.920;12.880;2024-03-02T01:57:18;96007.25;;;6.12;80.86
78206;BME280;67480;48.920;12.880;2024-03-02T01:59:44;96001.25;;;6.11;81.17
78206;BME280;67480;48.920;12.880;2024-03-02T02:02:09;95994.22;;;6.12;81.03
78206;BME280;67480;48.920;12.880;2024-03-02T02:04:35;95987.22;;;6.12;80.74
78206;BME280;67480;48.920;12.880;2024-03-02T02:07:00;95992.00;;;6.16;80.90
78206;BME280;67480;48.920;12.880;2024-03-02T02:09:26;95986.22;;;6.14;80.51
78206;BME280;67480;48.920;12.880;2024-03-02T02:11:51;95986.22;;;6.14;81.06
78206;BME280;67480;48.920;12.880;2024-03-02T02:14:17;95972.19;;;6.15;80.85
78206;BME280;67480;48.920;12.880;2024-03-02T02:16:42;95975.81;;;6.14;81.16
78206;BME280;67480;48.920;12.880;2024-03-02T02:19:08;95973.22;;;6.14;81.16
78206;BME280;67480;48.920;12.880;2024-03-02T02:21:33;95968.03;;;6.14;81.24
78206;BME280;67480;48.920;12.880;2024-03-02T02:23:59;95966.22;;;6.14;80.70
78206;BME280;67480;48.920;12.880;2024-03-02T02:26:24;95978.44;;;6.14;81.25
78206;BME280;67480;48.920;12.880;2024-03-02T02:28:50;95973.78;;;6.16;81.04
78206;BME280;67480;48.920;12.880;2024-03-02T02:31:15;95969.59;;;6.15;81.17
78206;BME280;67480;48.920;12.880;2024-03-02T02:33:42;95973.78;;;6.16;81.02
78206;BME280;67480;48.920;12.880;2024-03-02T02:36:07;95967.00;;;6.15;81.29
78206;BME280;67480;48.920;12.880;2024-03-02T02:38:37;95970.19;;;6.17;81.08
78206;BME280;67480;48.920;12.880;2024-03-02T02:41:04;95980.38;;;6.18;81.06
78206;BME280;67480;48.920;12.880;2024-03-02T02:43:29;95974.38;;;6.18;80.85
78206;BME280;67480;48.920;12.880;2024-03-02T02:45:54;95972.00;;;6.16;80.62
78206;BME280;67480;48.920;12.880;2024-03-02T02:48:20;95970.19;;;6.17;81.38
78206;BME280;67480;48.920;12.880;2024-03-02T02:50:45;95974.38;;;6.18;81.37
78206;BME280;67480;48.920;12.880;2024-03-02T02:53:14;95971.56;;;6.19;81.08
78206;BME280;67480;48.920;12.880;2024-03-02T02:55:39;95970.75;;;6.19;81.69
78206;BME280;67480;48.920;12.880;2024-03-02T02:58:11;95969.53;;;6.21;81.57
78206;BME280;67480;48.920;12.880;2024-03-02T03:00:37;95975.16;;;6.18;81.23
78206;BME280;67480;48.920;12.880;2024-03-02T03:03:06;95972.78;;;6.17;81.03
78206;BME280;67480;48.920;12.880;2024-03-02T03:05:31;95963.97;;;6.18;81.34
78206;BME280;67480;48.920;12.880;2024-03-02T03:07:56;95965.19;;;6.15;81.39
78206;BME280;67480;48.920;12.880;2024-03-02T03:10:22;95967.59;;;6.17;81.14
78206;BME280;67480;48.920;12.880;2024-03-02T03:12:48;95966.38;;;6.19;81.52
78206;BME280;67480;48.920;12.880;2024-03-02T03:15:14;95973.59;;;6.17;81.25
78206;BME280;67480;48.920;12.880;2024-03-02T03:17:41;95974.38;;;6.18;81.11
78206;BME280;67480;48.920;12.880;2024-03-02T03:20:07;95974.38;;;6.18;80.92
78206;BME280;67480;48.920;12.880;2024-03-02T03:22:35;95976.78;;;6.19;81.38
78206;BME280;67480;48.920;12.880;2024-03-02T03:25:01;95975.16;;;6.18;81.37
78206;BME280;67480;48.920;12.880;2024-03-02T03:27:26;95986.34;;;6.19;81.30
78206;BME280;67480;48.920;12.880;2024-03-02T03:29:51;95977.56;;;6.20;81.03
78206;BME280;67480;48.920;12.880;2024-03-02T03:32:17;95977.75;;;6.18;81.42
78206;BME280;67480;48.920;12.880;2024-03-02T03:34:42;95983.19;;;6.17;81.28
78206;BME280;67480;48.920;12.880;2024-03-02T03:37:08;95980.38;;;6.18;81.56
78206;BME280;67480;48.920;12.880;2024-03-02T03:39:34;95974.38;;;6.18;81.38
78206;BME280;67480;48.920;12.880;2024-03-02T03:42:00;95976.19;;;6.17;81.06
78206;BME280;67480;48.920;12.880;2024-03-02T03:44:26;95980.59;;;6.17;81.58
78206;BME280;67480;48.920;12.880;2024-03-02T03:46:51;95976.38;;;6.16;81.47
78206;BME280;67480;48.920;12.880;2024-03-02T03:49:16;95981.38;;;6.17;80.76
78206;BME280;67480;48.920;12.880;2024-03-02T03:51:42;95978.00;;;6.17;81.17
78206;BME280;67480;48.920;12.880;2024-03-02T03:54:08;95977.56;;;6.20;81.32
78206;BME280;67480;48.920;12.880;2024-03-02T03:56:33;95976.78;;;6.19;81.08
78206;BME280;67480;48.920;12.880;2024-03-02T03:58:58;95975.94;;;6.19;81.53
78206;BME280;67480;48.920;12.880;2024-03-02T04:01:25;95977.56;;;6.20;81.25
78206;BME280;67480;48.920;12.880;2024-03-02T04:03:53;95973.16;;;6.20;81.04
78206;BME280;67480;48.920;12.880;2024-03-02T04:06:18;95972.34;;;6.20;81.06
78206;BME280;67480;48.920;12.880;2024-03-02T04:08:44;95970.75;;;6.19;80.83
78206;BME280;67480;48.920;12.880;2024-03-02T04:11:09;95963.97;;;6.18;81.22
78206;BME280;67480;48.920;12.880;2024-03-02T04:13:34;95969.16;;;6.18;81.46
78206;BME280;67480;48.920;12.880;2024-03-02T04:16:00;95969.97;;;6.18;80.90
78206;BME280;67480;48.920;12.880;2024-03-02T04:18:25;95965.00;;;6.17;81.24
78206;BME280;67480;48.920;12.880;2024-03-02T04:20:50;95969.16;;;6.18;81.65
78206;BME280;67480;48.920;12.880;2024-03-02T04:23:16;95970.75;;;6.19;81.27
78206;BME280;67480;48.920;12.880;2024-03-02T04:25:41;95967.16;;;6.20;80.63
78206;BME280;67480;48.920;12.880;2024-03-02T04:28:06;95961.16;;;6.19;81.11
78206;BME280;67480;48.920;12.880;2024-03-02T04:30:32;95967.16;;;6.20;81.13
78206;BME280;67480;48.920;12.880;2024-03-02T04:32:57;95966.13;;;6.21;81.02
78206;BME280;67480;48.920;12.880;2024-03-02T04:35:23;95965.34;;;6.20;80.79
78206;BME280;67480;48.920;12.880;2024-03-02T04:37:48;95967.16;;;6.20;80.51
78206;BME280;67480;48.920;12.880;2024-03-02T04:40:13;95961.94;;;6.20;80.94
78206;BME280;67480;48.920;12.880;2024-03-02T04:42:39;95959.34;;;6.20;81.32
78206;BME280;67480;48.920;12.880;2024-03-02T04:45:05;95966.13;;;6.21;81.47
78206;BME280;67480;48.920;12.880;2024-03-02T04:47:31;95970.53;;;6.20;81.32
78206;BME280;67480;48.920;12.880;2024-03-02T04:49:57;95969.53;;;6.21;80.61
78206;BME280;67480;48.920;12.880;2024-03-02T04:52:22;95973.94;;;6.21;81.10
78206;BME280;67480;48.920;12.880;2024-03-02T04:54:47;95973.94;;;6.21;81.22
78206;BME280;67480;48.920;12.880;2024-03-02T04:57:31;95976.78;;;6.19;81.34
78206;BME280;67480;48.920;12.880;2024-03-02T04:59:57;95972.94;;;6.22;81.32
78206;BME280;67480;48.920;12.880;2024-03-02T05:02:22;95980.75;;;6.22;81.34
78206;BME280;67480;48.920;12.880;2024-03-02T05:04:47;95975.56;;;6.22;81.38
78206;BME280;67480;48.920;12.880;2024-03-02T05:07:14;95991.94;;;6.22;81.04
78206;BME280;67480;48.920;12.880;2024-03-02T05:09:39;95993.53;;;6.23;81.73
78206;BME280;67480;48.920;12.880;2024-03-02T05:12:05;95985.72;;;6.23;81.11
78206;BME280;67480;48.920;12.880;2024-03-02T05:14:36;95997.94;;;6.23;81.21
78206;BME280;67480;48.920;12.880;2024-03-02T05:17:03;95998.16;;;6.21;81.41
78206;BME280;67480;48.920;12.880;2024-03-02T05:19:29;96005.94;;;6.21;81.33
78206;BME280;67480;48.920;12.880;2024-03-02T05:21:54;96005.94;;;6.21;81.23
78206;BME280;67480;48.920;12.880;2024-03-02T05:24:19;96003.16;;;6.23;81.17
78206;BME280;67480;48.920;12.880;2024-03-02T05:26:45;95999.53;;;6.24;81.51
78206;BME280;67480;48.920;12.880;2024-03-02T05:29:10;96007.34;;;6.24;81.88
78206;BME280;67480;48.920;12.880;2024-03-02T05:31:35;96009.94;;;6.24;81.21
78206;BME280;67480;48.920;12.880;2024-03-02T05:34:01;96017.19;;;6.22;81.37
78206;BME280;67480;48.920;12.880;2024-03-02T05:36:26;96015.56;;;6.21;81.43
78206;BME280;67480;48.920;12.880;2024-03-02T05:38:52;96011.97;;;6.22;80.93
78206;BME280;67480;48.920;12.880;2024-03-02T05:41:17;96016.16;;;6.23;81.46
78206;BME280;67480;48.920;12.880;2024-03-02T05:43:42;96021.34;;;6.23;81.23
78206;BME280;67480;48.920;12.880;2024-03-02T05:46:08;96027.59;;;6.22;81.74
78206;BME280;67480;48.920;12.880;2024-03-02T05:48:33;96026.56;;;6.23;81.41
78206;BME280;67480;48.920;12.880;2024-03-02T05:50:59;96027.59;;;6.22;81.85
78206;BME280;67480;48.920;12.880;2024-03-02T05:53:25;96040.38;;;6.23;81.56
78206;BME280;67480;48.920;12.880;2024-03-02T05:55:50;96032.78;;;6.22;81.74
78206;BME280;67480;48.920;12.880;2024-03-02T05:58:20;96038.00;;;6.22;81.82
78206;BME280;67480;48.920;12.880;2024-03-02T06:00:56;96040.59;;;6.22;81.70
78206;BME280;67480;48.920;12.880;2024-03-02T06:03:22;96032.78;;;6.22;82.19
78206;BME280;67480;48.920;12.880;2024-03-02T06:05:47;96038.00;;;6.22;81.73
78206;BME280;67480;48.920;12.880;2024-03-02T06:08:14;96036.97;;;6.23;81.26
78206;BME280;67480;48.920;12.880;2024-03-02T06:10:40;96038.78;;;6.22;81.11
78206;BME280;67480;48.920;12.880;2024-03-02T06:13:05;96043.19;;;6.22;81.60
78206;BME280;67480;48.920;12.880;2024-03-02T06:15:30;96038.00;;;6.22;81.59
78206;BME280;67480;48.920;12.880;2024-03-02T06:17:56;96034.38;;;6.23;81.95
78206;BME280;67480;48.920;12.880;2024-03-02T06:20:21;96047.56;;;6.21;81.49
78206;BME280;67480;48.920;12.880;2024-03-02T06:22:46;96033.16;;;6.25;81.73
78206;BME280;67480;48.920;12.880;2024-03-02T06:25:12;96031.97;;;6.21;81.74
78206;BME280;67480;48.920;12.880;2024-03-02T06:27:38;96040.38;;;6.23;81.68
78206;BME280;67480;48.920;12.880;2024-03-02T06:30:07;96041.16;;;6.24;81.30
78206;BME280;67480;48.920;12.880;2024-03-02T06:32:33;96040.38;;;6.23;81.64
78206;BME280;67480;48.920;12.880;2024-03-02T06:34:59;96034.97;;;6.25;81.76
78206;BME280;67480;48.920;12.880;2024-03-02T06:37:24;96040.38;;;6.23;81.53
78206;BME280;67480;48.920;12.880;2024-03-02T06:39:50;96039.94;;;6.26;81.02
78206;BME280;67480;48.920;12.880;2024-03-02T06:42:15;96042.34;;;6.28;81.36
78206;BME280;67480;48.920;12.880;2024-03-02T06:44:40;96051.13;;;6.27;81.52
78206;BME280;67480;48.920;12.880;2024-03-02T06:47:09;96052.75;;;6.28;81.62
78206;BME280;67480;48.920;12.880;2024-03-02T06:49:34;96058.75;;;6.28;82.10
78206;BME280;67480;48.920;12.880;2024-03-02T06:52:00;96061.09;;;6.30;82.11
78206;BME280;67480;48.920;12.880;2024-03-02T06:54:25;96061.09;;;6.30;81.93
78206;BME280;67480;48.920;12.880;2024-03-02T06:56:51;96064.13;;;6.27;82.12
78206;BME280;67480;48.920;12.880;2024-03-02T06:59:16;96071.53;;;6.30;82.26
78206;BME280;67480;48.920;12.880;2024-03-02T07:01:41;96069.94;;;6.29;82.42
78206;BME280;67480;48.920;12.880;2024-03-02T07:04:08;96075.13;;;6.29;82.23
78206;BME280;67480;48.920;12.880;2024-03-02T07:06:33;96061.53;;;6.27;81.85
78206;BME280;67480;48.920;12.880;2024-03-02T07:08:59;96072.34;;;6.30;82.90
78206;BME280;67480;48.920;12.880;2024-03-02T07:11:24;96067.94;;;6.31;82.80
78206;BME280;67480;48.920;12.880;2024-03-02T07:13:49;96068.53;;;6.33;82.65
78206;BME280;67480;48.920;12.880;2024-03-02T07:16:15;96073.72;;;6.33;82.58
78206;BME280;67480;48.920;12.880;2024-03-02T07:18:58;96070.09;;;6.34;83.18
78206;BME280;67480;48.920;12.880;2024-03-02T07:21:24;96074.72;;;6.32;82.21
78206;BME280;67480;48.920;12.880;2024-03-02T07:23:50;96077.13;;;6.33;81.74
78206;BME280;67480;48.920;12.880;2024-03-02T07:26:16;96079.72;;;6.33;81.40
78206;BME280;67480;48.920;12.880;2024-03-02T07:28:43;96071.13;;;6.33;80.65
78206;BME280;67480;48.920;12.880;2024-03-02T07:31:12;96070.09;;;6.34;80.04
78206;BME280;67480;48.920;12.880;2024-03-02T07:33:37;96080.28;;;6.35;80.04
78206;BME280;67480;48.920;12.880;2024-03-02T07:36:03;96089.91;;;6.35;80.25
78206;BME280;67480;48.920;12.880;2024-03-02T07:38:28;96086.50;;;6.34;80.32
78206;BME280;67480;48.920;12.880;2024-03-02T07:40:54;96081.91;;;6.37;80.47
78206;BME280;67480;48.920;12.880;2024-03-02T07:43:21;96082.69;;;6.37;80.14
78206;BME280;67480;48.920;12.880;2024-03-02T07:45:47;96088.69;;;6.38;79.92
78206;BME280;67480;48.920;12.880;2024-03-02T07:48:12;96091.09;;;6.39;80.20
78206;BME280;67480;48.920;12.880;2024-03-02T07:50:38;96093.47;;;6.41;80.05
78206;BME280;67480;48.920;12.880;2024-03-02T07:53:04;96096.66;;;6.43;79.91
78206;BME280;67480;48.920;12.880;2024-03-02T07:55:30;96099.44;;;6.41;79.57
78206;BME280;67480;48.920;12.880;2024-03-02T07:57:56;96104.28;;;6.44;79.89
78206;BME280;67480;48.920;12.880;2024-03-02T08:00:22;96099.88;;;6.45;79.72
78206;BME280;67480;48.920;12.880;2024-03-02T08:02:48;96116.28;;;6.45;79.58
78206;BME280;67480;48.920;12.880;2024-03-02T08:05:14;96124.09;;;6.45;79.75
78206;BME280;67480;48.920;12.880;2024-03-02T08:07:40;96125.69;;;6.46;79.53
78206;BME280;67480;48.920;12.880;2024-03-02T08:10:12;96122.88;;;6.48;79.63
78206;BME280;67480;48.920;12.880;2024-03-02T08:12:38;96118.47;;;6.48;79.78
78206;BME280;67480;48.920;12.880;2024-03-02T08:15:04;96128.88;;;6.48;79.56
78206;BME280;67480;48.920;12.880;2024-03-02T08:17:30;96128.09;;;6.48;79.23
78206;BME280;67480;48.920;12.880;2024-03-02T08:19:55;96129.47;;;6.50;79.48
78206;BME280;67480;48.920;12.880;2024-03-02T08:22:21;96134.66;;;6.50;79.50
78206;BME280;67480;48.920;12.880;2024-03-02T08:24:46;96131.84;;;6.52;79.49
78206;BME280;67480;48.920;12.880;2024-03-02T08:27:12;96132.84;;;6.51;79.80
78206;BME280;67480;48.920;12.880;2024-03-02T08:29:37;96135.22;;;6.52;79.43
78206;BME280;67480;48.920;12.880;2024-03-02T08:32:04;96139.44;;;6.53;79.53
78206;BME280;67480;48.920;12.880;2024-03-02T08:34:30;96138.44;;;6.54;79.52
78206;BME280;67480;48.920;12.880;2024-03-02T08:36:55;96137.44;;;6.55;79.12
78206;BME280;67480;48.920;12.880;2024-03-02T08:39:21;96129.63;;;6.55;79.12
78206;BME280;67480;48.920;12.880;2024-03-02T08:41:46;96138.22;;;6.56;79.51
78206;BME280;67480;48.920;12.880;2024-03-02T08:44:13;96137.81;;;6.59;79.18
78206;BME280;67480;48.920;12.880;2024-03-02T08:46:39;96139.63;;;6.59;79.22
78206;BME280;67480;48.920;12.880;2024-03-02T08:49:05;96145.38;;;6.61;79.11
78206;BME280;67480;48.920;12.880;2024-03-02T08:51:30;96149.59;;;6.62;78.75
78206;BME280;67480;48.920;12.880;2024-03-02T08:53:57;96149.59;;;6.62;79.21
78206;BME280;67480;48.920;12.880;2024-03-02T08:56:23;96145.78;;;6.64;78.99
78206;BME280;67480;48.920;12.880;2024-03-02T08:58:49;96149.97;;;6.65;79.33
78206;BME280;67480;48.920;12.880;2024-03-02T09:01:15;96143.97;;;6.65;79.39
78206;BME280;67480;48.920;12.880;2024-03-02T09:03:42;96149.75;;;6.67;79.05
78206;BME280;67480;48.920;12.880;2024-03-02T09:06:10;96153.16;;;6.67;79.16
78206;BME280;67480;48.920;12.880;2024-03-02T09:08:35;96147.72;;;6.69;79.13
78206;BME280;67480;48.920;12.880;2024-03-02T09:11:04;96152.72;;;6.70;78.89
78206;BME280;67480;48.920;12.880;2024-03-02T09:13:31;96148.13;;;6.72;78.68
78206;BME280;67480;48.920;12.880;2024-03-02T09:15:56;96150.47;;;6.74;78.53
78206;BME280;67480;48.920;12.880;2024-03-02T09:18:22;96139.03;;;6.75;78.18
78206;BME280;67480;48.920;12.880;2024-03-02T09:20:47;96136.44;;;6.75;78.22
78206;BME280;67480;48.920;12.880;2024-03-02T09:23:12;96136.03;;;6.78;78.24
78206;BME280;67480;48.920;12.880;2024-03-02T09:25:38;96133.22;;;6.79;79.04
78206;BME280;67480;48.920;12.880;2024-03-02T09:28:03;96135.63;;;6.81;78.84
78206;BME280;67480;48.920;12.880;2024-03-02T09:30:29;96128.34;;;6.83;78.16
78206;BME280;67480;48.920;12.880;2024-03-02T09:32:54;96125.31;;;6.86;78.34
78206;BME280;67480;48.920;12.880;2024-03-02T09:35:20;96123.53;;;6.87;78.17
78206;BME280;67480;48.920;12.880;2024-03-02T09:37:45;96119.28;;;6.92;78.43
78206;BME280;67480;48.920;12.880;2024-03-02T09:40:11;96120.66;;;6.95;78.60
78206;BME280;67480;48.920;12.880;2024-03-02T09:42:39;96121.44;;;6.95;78.83
78206;BME280;67480;48.920;12.880;2024-03-02T09:45:06;96114.44;;;6.96;78.22
78206;BME280;67480;48.920;12.880;2024-03-02T09:47:32;96101.16;;;6.97;77.82
78206;BME280;67480;48.920;12.880;2024-03-02T09:49:57;96104.59;;;6.98;77.62
78206;BME280;67480;48.920;12.880;2024-03-02T09:52:23;96104.59;;;6.98;78.41
78206;BME280;67480;48.920;12.880;2024-03-02T09:54:49;96108.00;;;6.98;78.76
78206;BME280;67480;48.920;12.880;2024-03-02T09:57:15;96100.97;;;6.99;78.45
78206;BME280;67480;48.920;12.880;2024-03-02T09:59:40;96106.53;;;7.03;78.34
78206;BME280;67480;48.920;12.880;2024-03-02T10:02:05;96104.50;;;7.05;78.30
78206;BME280;67480;48.920;12.880;2024-03-02T10:04:32;96104.09;;;7.08;78.32
78206;BME280;67480;48.920;12.880;2024-03-02T10:09:34;96098.66;;;7.09;77.98
78206;BME280;67480;48.920;12.880;2024-03-02T10:12:10;96094.25;;;7.10;77.97
78206;BME280;67480;48.920;12.880;2024-03-02T10:14:37;96102.25;;;7.08;77.40
78206;BME280;67480;48.920;12.880;2024-03-02T10:17:04;96100.59;;;7.14;78.27
78206;BME280;67480;48.920;12.880;2024-03-02T10:19:29;96097.22;;;7.13;78.66
78206;BME280;67480;48.920;12.880;2024-03-02T10:21:58;96099.38;;;7.16;78.33
78206;BME280;67480;48.920;12.880;2024-03-02T10:24:24;96099.59;;;7.15;78.17
78206;BME280;67480;48.920;12.880;2024-03-02T10:26:51;96103.59;;;7.17;77.98
78206;BME280;67480;48.920;12.880;2024-03-02T10:29:16;96096.75;;;7.16;77.70
78206;BME280;67480;48.920;12.880;2024-03-02T10:31:44;96104.38;;;7.18;77.53
78206;BME280;67480;48.920;12.880;2024-03-02T10:34:11;96099.16;;;7.18;77.94
78206;BME280;67480;48.920;12.880;2024-03-02T10:36:40;96104.53;;;7.23;77.85
78206;BME280;67480;48.920;12.880;2024-03-02T10:39:07;96097.72;;;7.22;77.79
78206;BME280;67480;48.920;12.880;2024-03-02T10:41:34;96098.28;;;7.24;77.42
78206;BME280;67480;48.920;12.880;2024-03-02T10:44:06;96094.66;;;7.25;77.91
78206;BME280;67480;48.920;12.880;2024-03-02T10:46:33;96087.88;;;7.24;77.30
78206;BME280;67480;48.920;12.880;2024-03-02T10:49:00;96091.63;;;7.28;77.49
78206;BME280;67480;48.920;12.880;2024-03-02T10:51:30;96092.78;;;7.32;77.61
78206;BME280;67480;48.920;12.880;2024-03-02T10:53:59;96091.75;;;7.33;77.38
78206;BME280;67480;48.920;12.880;2024-03-02T10:56:30;96075.69;;;7.36;77.87
78206;BME280;67480;48.920;12.880;2024-03-02T10:59:02;96080.00;;;7.42;77.70
78206;BME280;67480;48.920;12.880;2024-03-02T11:01:30;96086.41;;;7.46;78.00
78206;BME280;67480;48.920;12.880;2024-03-02T11:03:57;96083.56;;;7.48;78.05
78206;BME280;67480;48.920;12.880;2024-03-02T11:06:23;96073.72;;;7.50;77.80
78206;BME280;67480;48.920;12.880;2024-03-02T11:08:53;96067.50;;;7.51;77.44
78206;BME280;67480;48.920;12.880;2024-03-02T11:11:28;96062.78;;;7.60;78.05
78206;BME280;67480;48.920;12.880;2024-03-02T11:13:56;96059.28;;;7.66;78.36
78206;BME280;67480;48.920;12.880;2024-03-02T11:16:42;96055.19;;;7.70;78.37
78206;BME280;67480;48.920;12.880;2024-03-02T11:19:11;96051.69;;;7.76;78.37
78206;BME280;67480;48.920;12.880;2024-03-02T11:21:37;96048.66;;;7.79;77.88
78206;BME280;67480;48.920;12.880;2024-03-02T11:26:47;96035.97;;;7.95;78.07
78206;BME280;67480;48.920;12.880;2024-03-02T11:32:00;96031.22;;;8.03;78.11
78206;BME280;67480;48.920;12.880;2024-03-02T11:34:33;96033.19;;;8.08;78.29
78206;BME280;67480;48.920;12.880;2024-03-02T11:37:00;96026.94;;;8.09;77.94
78206;BME280;67480;48.920;12.880;2024-03-02T11:39:26;96021.03;;;8.13;78.16
78206;BME280;67480;48.920;12.880;2024-03-02T11:41:52;96014.00;;;8.14;78.11
78206;BME280;67480;48.920;12.880;2024-03-02T11:44:17;96017.66;;;8.13;77.43
78206;BME280;67480;48.920;12.880;2024-03-02T11:47:01;96013.22;;;8.13;77.27
78206;BME280;67480;48.920;12.880;2024-03-02T11:49:50;96004.03;;;8.11;77.57
78206;BME280;67480;48.920;12.880;2024-03-02T11:52:17;95999.47;;;8.18;77.82
78206;BME280;67480;48.920;12.880;2024-03-02T11:54:44;96003.69;;;8.19;77.15
78206;BME280;67480;48.920;12.880;2024-03-02T11:57:18;95999.59;;;8.23;77.58
78206;BME280;67480;48.920;12.880;2024-03-02T11:59:44;95995.97;;;8.24;77.49
78206;BME280;67480;48.920;12.880;2024-03-02T12:02:18;95994.16;;;8.25;77.49
78206;BME280;67480;48.920;12.880;2024-03-02T12:04:44;95984.50;;;8.25;77.78
78206;BME280;67480;48.920;12.880;2024-03-02T12:07:11;95984.63;;;8.30;77.49
78206;BME280;67480;48.920;12.880;2024-03-02T12:09:37;95982.34;;;8.34;77.10
78206;BME280;67480;48.920;12.880;2024-03-02T12:12:07;95979.84;;;8.39;77.17
78206;BME280;67480;48.920;12.880;2024-03-02T12:14:35;95976.78;;;8.42;77.59
78206;BME280;67480;48.920;12.880;2024-03-02T12:17:00;95972.91;;;8.45;77.08
78206;BME280;67480;48.920;12.880;2024-03-02T12:19:26;95968.34;;;8.52;76.99
78206;BME280;67480;48.920;12.880;2024-03-02T12:21:53;95958.59;;;8.59;76.73
78206;BME280;67480;48.920;12.880;2024-03-02T12:24:20;95956.09;;;8.64;76.64
78206;BME280;67480;48.920;12.880;2024-03-02T12:26:46;95967.00;;;8.61;76.71
78206;BME280;67480;48.920;12.880;2024-03-02T12:29:13;95958.25;;;8.67;76.81
78206;BME280;67480;48.920;12.880;2024-03-02T12:31:40;95967.44;;;8.70;76.55
78206;BME280;67480;48.920;12.880;2024-03-02T12:34:06;95959.47;;;8.76;76.61
78206;BME280;67480;48.920;12.880;2024-03-02T12:36:37;95955.59;;;8.79;76.22
78206;BME280;67480;48.920;12.880;2024-03-02T12:39:03;95955.81;;;8.77;76.52
78206;BME280;67480;48.920;12.880;2024-03-02T12:41:28;95945.38;;;8.77;76.59
78206;BME280;67480;48.920;12.880;2024-03-02T12:43:54;95948.66;;;8.85;76.17
78206;BME280;67480;48.920;12.880;2024-03-02T12:46:20;95950.81;;;8.88;75.94
78206;BME280;67480;48.920;12.880;2024-03-02T12:48:45;95945.56;;;8.88;76.34
78206;BME280;67480;48.920;12.880;2024-03-02T12:51:10;95949.56;;;8.90;76.12
78206;BME280;67480;48.920;12.880;2024-03-02T12:53:36;95944.66;;;8.94;76.22
78206;BME280;67480;48.920;12.880;2024-03-02T12:56:01;95941.94;;;9.00;76.06
78206;BME280;67480;48.920;12.880;2024-03-02T12:58:27;95948.41;;;8.98;76.06
78206;BME280;67480;48.920;12.880;2024-03-02T13:01:07;95939.53;;;8.99;75.70
78206;BME280;67480;48.920;12.880;2024-03-02T13:03:41;95934.41;;;9.04;75.87
78206;BME280;67480;48.920;12.880;2024-03-02T13:06:07;95934.41;;;9.04;75.97